createdAt,value
2019-02-07T00:00:24.268Z,83.07
2019-02-07T00:02:51.226Z,82.93
2019-02-07T00:05:18.157Z,82.80
2019-02-07T00:07:45.131Z,82.60
2019-02-07T00:10:12.609Z,83.35
2019-02-07T00:12:39.743Z,83.08
2019-02-07T00:15:07.215Z,83.20
2019-02-07T00:17:34.365Z,82.81
2019-02-07T00:20:01.292Z,82.70
2019-02-07T00:22:28.252Z,82.17
2019-02-07T00:24:55.198Z,82.96
2019-02-07T00:27:22.153Z,83.06
2019-02-07T00:29:49.090Z,82.47
2019-02-07T00:32:16.051Z,82.23
2019-02-07T00:34:43.275Z,82.12
2019-02-07T00:37:10.233Z,82.62
2019-02-07T00:39:37.262Z,81.78
2019-02-07T00:42:04.225Z,82.17
2019-02-07T00:44:31.171Z,81.69
2019-02-07T00:46:58.137Z,81.76
2019-02-07T00:49:25.062Z,82.20
2019-02-07T00:51:52.412Z,81.92
2019-02-07T00:54:19.349Z,81.71
2019-02-07T00:56:46.305Z,81.26
2019-02-07T00:59:13.345Z,81.37
2019-02-07T01:01:40.257Z,81.34
2019-02-07T01:04:07.211Z,81.50
2019-02-07T01:06:34.171Z,81.70
2019-02-07T01:09:01.157Z,81.75
2019-02-07T01:11:28.476Z,81.71
2019-02-07T01:13:55.446Z,82.15
2019-02-07T01:16:22.462Z,82.42
2019-02-07T01:18:49.466Z,82.46
2019-02-07T01:21:16.391Z,82.67
2019-02-07T01:23:43.384Z,82.21
2019-02-07T01:26:10.435Z,83.39
2019-02-07T01:28:37.802Z,83.72
2019-02-07T01:31:04.734Z,83.79
2019-02-07T01:33:31.721Z,84.47
2019-02-07T01:35:58.684Z,84.34
2019-02-07T01:38:25.690Z,84.32
2019-02-07T01:40:52.634Z,84.68
2019-02-07T01:43:19.622Z,84.97
2019-02-07T01:45:46.553Z,85.32
2019-02-07T01:48:13.930Z,85.68
2019-02-07T01:50:40.866Z,85.56
2019-02-07T01:53:08.244Z,84.94
2019-02-07T01:55:35.199Z,84.46
2019-02-07T01:58:02.370Z,84.74
2019-02-07T02:00:29.275Z,84.63
2019-02-07T02:02:56.272Z,84.53
2019-02-07T02:05:23.215Z,83.44
2019-02-07T02:07:50.507Z,83.21
2019-02-07T02:10:19.874Z,81.43
2019-02-07T02:12:46.891Z,81.13
2019-02-07T02:15:24.071Z,80.97
2019-02-07T02:17:46.616Z,81.61
2019-02-07T02:20:14.431Z,80.71
2019-02-07T02:22:41.697Z,80.17
2019-02-07T02:25:09.446Z,80.24
2019-02-07T02:27:36.441Z,79.88
2019-02-07T02:30:06.937Z,79.67
2019-02-07T02:32:33.964Z,79.38
2019-02-07T02:35:00.900Z,78.77
2019-02-07T02:37:27.875Z,78.95
2019-02-07T02:39:55.152Z,78.27
2019-02-07T02:42:22.202Z,79.38
2019-02-07T02:44:49.139Z,78.48
2019-02-07T02:47:16.144Z,78.69
2019-02-07T02:49:43.088Z,78.44
2019-02-07T02:52:10.034Z,78.75
2019-02-07T02:54:43.768Z,79.55
2019-02-07T02:57:11.005Z,80.30
2019-02-07T02:59:37.982Z,80.74
2019-02-07T03:02:21.647Z,81.47
2019-02-07T03:04:54.902Z,81.49
2019-02-07T03:07:33.930Z,83.19
2019-02-07T03:10:30.170Z,82.72
2019-02-07T03:13:28.631Z,85.37
2019-02-07T03:16:14.116Z,84.32
2019-02-07T03:19:09.827Z,86.19
2019-02-07T03:21:59.143Z,86.40
2019-02-07T03:24:44.473Z,88.28
2019-02-07T03:27:49.689Z,89.51
2019-02-07T03:30:36.224Z,89.33
2019-02-07T03:33:31.877Z,89.81
2019-02-07T03:36:06.323Z,91.39
2019-02-07T03:39:02.179Z,91.31
2019-02-07T03:41:45.727Z,91.23
2019-02-07T03:44:35.498Z,92.96
2019-02-07T03:47:33.066Z,91.98
2019-02-07T03:50:14.980Z,92.62
2019-02-07T03:52:52.767Z,94.02
2019-02-07T03:55:39.353Z,93.63
2019-02-07T03:58:35.030Z,94.24
2019-02-07T04:01:21.572Z,95.03
2019-02-07T04:04:00.067Z,95.21
2019-02-07T04:06:42.659Z,96.43
2019-02-07T04:09:24.106Z,97.46
2019-02-07T04:12:16.693Z,97.11
2019-02-07T04:15:05.632Z,96.93
2019-02-07T04:17:44.433Z,97.82
2019-02-07T04:20:34.044Z,99.50
2019-02-07T04:23:26.632Z,99.37
2019-02-07T04:26:11.874Z,100.00
2019-02-07T04:28:57.457Z,100.00
2019-02-07T04:31:46.543Z,100.00
2019-02-07T04:34:33.120Z,100.00
2019-02-07T04:37:20.053Z,100.00
2019-02-07T04:40:05.709Z,100.00
2019-02-07T04:42:52.240Z,99.12
2019-02-07T04:45:30.611Z,99.42
2019-02-07T04:48:15.675Z,98.52
2019-02-07T04:51:01.364Z,99.25
2019-02-07T04:53:44.879Z,98.31
2019-02-07T04:56:43.452Z,97.65
2019-02-07T04:59:23.201Z,97.14
2019-02-07T05:02:08.356Z,96.15
2019-02-07T05:04:54.664Z,95.80
2019-02-07T05:07:56.380Z,95.19
2019-02-07T05:10:41.593Z,97.38
2019-02-07T05:13:26.753Z,95.78
2019-02-07T05:16:16.382Z,96.31
2019-02-07T05:19:21.063Z,95.34
2019-02-07T05:22:13.699Z,94.92
2019-02-07T05:24:48.403Z,95.44
2019-02-07T05:27:35.108Z,93.89
2019-02-07T05:30:26.986Z,95.03
2019-02-07T05:33:16.375Z,95.33
2019-02-07T05:36:01.460Z,93.78
2019-02-07T05:39:06.082Z,94.00
2019-02-07T05:41:52.647Z,94.21
2019-02-07T05:44:45.139Z,93.98
2019-02-07T05:47:40.599Z,96.12
2019-02-07T05:50:27.522Z,95.97
2019-02-07T05:53:19.856Z,97.15
2019-02-07T05:55:57.461Z,97.39
2019-02-07T05:58:44.009Z,97.39
2019-02-07T06:01:39.379Z,96.89
2019-02-07T06:04:37.943Z,95.66
2019-02-07T06:07:23.194Z,97.25
2019-02-07T06:10:15.918Z,96.41
2019-02-07T06:13:06.156Z,95.40
2019-02-07T06:16:08.085Z,95.00
2019-02-07T06:18:53.324Z,94.50
2019-02-07T06:21:29.885Z,94.81
2019-02-07T06:24:31.833Z,95.73
2019-02-07T06:27:24.488Z,95.09
2019-02-07T06:30:09.731Z,95.38
2019-02-07T06:32:54.540Z,95.63
2019-02-07T06:35:30.873Z,96.78
2019-02-07T06:38:04.639Z,97.30
2019-02-07T06:40:50.110Z,98.19
2019-02-07T06:43:32.096Z,98.48
2019-02-07T06:46:15.960Z,98.60
2019-02-07T06:49:01.218Z,98.79
2019-02-07T06:51:48.043Z,98.88
2019-02-07T06:54:26.941Z,98.80
2019-02-07T06:57:13.602Z,98.61
2019-02-07T06:59:59.007Z,98.71
2019-02-07T07:02:34.181Z,97.70
2019-02-07T07:05:27.472Z,98.23
2019-02-07T07:08:05.466Z,97.94
2019-02-07T07:10:57.592Z,97.77
2019-02-07T07:13:35.314Z,96.99
2019-02-07T07:16:26.959Z,96.57
2019-02-07T07:19:12.462Z,96.73
2019-02-07T07:21:57.977Z,96.79
2019-02-07T07:24:44.584Z,96.71
2019-02-07T07:27:27.628Z,95.98
2019-02-07T07:30:08.133Z,95.66
2019-02-07T07:32:57.298Z,94.98
2019-02-07T07:35:52.921Z,94.12
2019-02-07T07:38:39.899Z,94.47
2019-02-07T07:41:32.622Z,94.92
2019-02-07T07:44:31.287Z,94.45
2019-02-07T07:47:35.521Z,94.36
2019-02-07T07:50:28.822Z,93.95
2019-02-07T07:53:16.286Z,94.26
2019-02-07T07:55:54.770Z,94.31
2019-02-07T07:58:40.119Z,93.76
2019-02-07T08:01:28.187Z,93.89
2019-02-07T08:04:13.387Z,93.36
2019-02-07T08:07:05.695Z,93.95
2019-02-07T08:09:50.712Z,94.42
2019-02-07T08:12:37.270Z,94.09
2019-02-07T08:15:41.387Z,95.13
2019-02-07T08:18:23.561Z,94.85
2019-02-07T08:21:12.899Z,94.81
2019-02-07T08:23:58.709Z,96.33
2019-02-07T08:27:03.344Z,96.02
2019-02-07T08:29:48.094Z,96.52
2019-02-07T08:32:37.568Z,96.55
2019-02-07T08:35:19.662Z,95.52
2019-02-07T08:38:02.229Z,95.95
2019-02-07T08:40:37.812Z,96.90
2019-02-07T08:43:20.908Z,97.88
2019-02-07T08:46:19.516Z,98.04
2019-02-07T08:49:13.510Z,98.60
2019-02-07T08:51:59.153Z,99.21
2019-02-07T08:54:47.533Z,99.64
2019-02-07T08:57:36.873Z,99.67
2019-02-07T09:00:33.271Z,98.96
2019-02-07T09:03:11.132Z,98.60
2019-02-07T09:06:01.124Z,98.59
2019-02-07T09:08:45.030Z,99.28
2019-02-07T09:11:30.403Z,100.00
2019-02-07T09:14:15.303Z,99.81
2019-02-07T09:16:58.738Z,100.00
2019-02-07T09:19:47.177Z,99.94
2019-02-07T09:22:39.315Z,99.22
2019-02-07T09:25:24.572Z,98.32
2019-02-07T09:28:09.666Z,98.13
2019-02-07T09:31:01.820Z,98.60
2019-02-07T09:33:48.368Z,98.27
2019-02-07T09:36:39.139Z,97.78
2019-02-07T09:39:25.976Z,97.41
2019-02-07T09:42:05.389Z,97.68
2019-02-07T09:44:55.643Z,97.50
2019-02-07T09:47:41.060Z,97.59
2019-02-07T09:50:18.670Z,97.72
2019-02-07T09:53:24.247Z,97.29
2019-02-07T09:56:19.544Z,97.37
2019-02-07T09:59:15.194Z,98.01
2019-02-07T10:01:52.960Z,98.12
2019-02-07T10:04:45.543Z,98.21
2019-02-07T10:07:23.295Z,98.18
2019-02-07T10:10:15.581Z,98.23
2019-02-07T10:13:20.285Z,98.53
2019-02-07T10:16:06.347Z,98.14
2019-02-07T10:18:48.909Z,98.30
2019-02-07T10:21:44.817Z,97.49
2019-02-07T10:24:46.308Z,97.57
2019-02-07T10:27:35.806Z,96.72
2019-02-07T10:30:30.051Z,96.81
2019-02-07T10:33:25.682Z,96.94
2019-02-07T10:36:05.559Z,96.89
2019-02-07T10:38:40.039Z,96.95
2019-02-07T10:41:24.633Z,95.55
2019-02-07T10:44:10.114Z,95.55
2019-02-07T10:46:55.858Z,95.37
2019-02-07T10:49:40.205Z,95.68
2019-02-07T10:52:28.102Z,95.97
2019-02-07T10:55:13.149Z,96.08
2019-02-07T10:58:07.127Z,95.47
2019-02-07T11:00:52.254Z,95.83
2019-02-07T11:03:38.948Z,95.95
2019-02-07T11:06:19.343Z,94.85
2019-02-07T11:09:05.987Z,95.38
2019-02-07T11:11:51.075Z,95.39
2019-02-07T11:14:36.462Z,95.40
2019-02-07T11:17:38.423Z,95.00
2019-02-07T11:20:26.622Z,93.78
2019-02-07T11:23:18.867Z,91.21
2019-02-07T11:26:22.363Z,88.51
2019-02-07T11:29:07.602Z,88.33
2019-02-07T11:31:48.465Z,87.48
2019-02-07T11:34:50.553Z,89.05
2019-02-07T11:37:43.433Z,88.87
2019-02-07T11:40:36.593Z,88.76
2019-02-07T11:43:23.571Z,88.05
2019-02-07T11:46:10.147Z,85.94
2019-02-07T11:49:06.576Z,86.92
2019-02-07T11:51:41.266Z,86.02
2019-02-07T11:54:16.951Z,83.67
2019-02-07T11:57:02.361Z,83.99
2019-02-07T11:59:51.739Z,81.27
2019-02-07T12:02:38.367Z,78.41
2019-02-07T12:05:17.397Z,78.25
2019-02-07T12:07:53.705Z,75.89
2019-02-07T12:10:47.550Z,75.30
2019-02-07T12:13:42.576Z,75.94
2019-02-07T12:16:31.928Z,74.71
2019-02-07T12:19:18.408Z,75.95
2019-02-07T12:22:03.362Z,74.48
2019-02-07T12:25:01.608Z,73.48
2019-02-07T12:27:47.330Z,74.52
2019-02-07T12:30:29.391Z,74.90
2019-02-07T12:33:31.635Z,74.05
2019-02-07T12:36:24.808Z,73.30
2019-02-07T12:39:07.659Z,73.91
2019-02-07T12:41:50.838Z,74.01
2019-02-07T12:44:55.593Z,72.78
2019-02-07T12:47:48.037Z,72.89
2019-02-07T12:50:40.769Z,71.41
2019-02-07T12:53:27.982Z,70.94
2019-02-07T12:56:20.526Z,70.36
2019-02-07T12:59:06.452Z,69.37
2019-02-07T13:01:51.406Z,68.79
2019-02-07T13:04:37.165Z,69.54
2019-02-07T13:07:32.739Z,69.20
2019-02-07T13:10:07.977Z,68.83
2019-02-07T13:12:53.683Z,68.36
2019-02-07T13:15:49.460Z,68.53
2019-02-07T13:18:36.325Z,68.62
2019-02-07T13:21:19.184Z,68.93
2019-02-07T13:24:09.015Z,68.14
2019-02-07T13:26:54.492Z,69.45
2019-02-07T13:29:34.226Z,70.12
2019-02-07T13:32:20.088Z,70.48
2019-02-07T13:35:19.753Z,72.32
2019-02-07T13:38:00.762Z,71.57
2019-02-07T13:40:50.589Z,72.42
2019-02-07T13:43:30.000Z,70.77
2019-02-07T13:46:06.587Z,71.43
2019-02-07T13:48:56.189Z,71.89
2019-02-07T13:52:01.267Z,71.26
2019-02-07T13:54:46.648Z,71.58
2019-02-07T13:57:41.972Z,71.79
2019-02-07T14:00:39.424Z,72.48
2019-02-07T14:03:22.144Z,71.58
2019-02-07T14:06:07.597Z,72.25
2019-02-07T14:08:52.623Z,71.29
2019-02-07T14:11:30.242Z,71.86
2019-02-07T14:14:19.516Z,73.50
2019-02-07T14:17:18.395Z,72.74
2019-02-07T14:20:05.491Z,71.89
2019-02-07T14:22:50.712Z,71.06
2019-02-07T14:25:49.022Z,70.97
2019-02-07T14:28:44.466Z,71.95
2019-02-07T14:31:21.132Z,72.52
2019-02-07T14:34:13.668Z,72.00
2019-02-07T14:36:58.539Z,71.75
2019-02-07T14:39:45.560Z,72.09
2019-02-07T14:42:31.553Z,72.38
2019-02-07T14:45:16.944Z,73.27
2019-02-07T14:47:43.922Z,72.45
2019-02-07T14:50:15.055Z,73.40
2019-02-07T14:52:40.265Z,73.80
2019-02-07T14:55:09.109Z,73.52
2019-02-07T14:57:36.614Z,73.29
2019-02-07T15:00:07.377Z,73.96
2019-02-07T15:02:34.354Z,73.22
2019-02-07T15:05:01.290Z,73.74
2019-02-07T15:07:28.296Z,73.77
2019-02-07T15:09:55.212Z,74.13
2019-02-07T15:12:22.152Z,73.56
2019-02-07T15:14:49.069Z,73.53
2019-02-07T15:17:16.070Z,73.42
2019-02-07T15:19:43.005Z,74.12
2019-02-07T15:22:09.930Z,73.58
2019-02-07T15:24:36.847Z,73.92
2019-02-07T15:27:03.892Z,73.95
2019-02-07T15:29:30.821Z,73.78
2019-02-07T15:31:57.832Z,73.70
2019-02-07T15:34:25.168Z,73.52
2019-02-07T15:36:53.270Z,73.95
2019-02-07T15:39:20.195Z,73.91
2019-02-07T15:41:47.468Z,73.13
2019-02-07T15:44:14.385Z,72.75
2019-02-07T15:46:41.362Z,72.81
2019-02-07T15:49:08.506Z,73.02
2019-02-07T15:51:35.442Z,72.38
2019-02-07T15:54:03.008Z,72.24
2019-02-07T15:56:29.939Z,71.74
2019-02-07T15:59:14.346Z,72.74
2019-02-07T16:01:49.138Z,73.37
2019-02-07T16:04:18.800Z,73.09
2019-02-07T16:06:45.776Z,73.93
2019-02-07T16:09:14.284Z,74.39
2019-02-07T16:11:41.248Z,74.67
2019-02-07T16:14:08.284Z,74.80
2019-02-07T16:16:35.255Z,74.43
2019-02-07T16:19:02.236Z,74.99
2019-02-07T16:21:29.170Z,74.33
2019-02-07T16:23:56.104Z,74.61
2019-02-07T16:26:23.038Z,74.51
2019-02-07T16:28:49.979Z,75.01
2019-02-07T16:31:16.883Z,74.31
2019-02-07T16:33:43.847Z,73.59
2019-02-07T16:36:10.782Z,73.61
2019-02-07T16:38:37.753Z,74.45
2019-02-07T16:41:05.093Z,73.26
2019-02-07T16:43:32.174Z,73.45
2019-02-07T16:45:59.105Z,74.06
2019-02-07T16:48:26.066Z,73.65
2019-02-07T16:51:00.313Z,73.43
2019-02-07T16:53:23.420Z,74.20
2019-02-07T16:55:50.333Z,73.92
2019-02-07T16:58:17.675Z,74.61
2019-02-07T17:00:44.640Z,76.33
2019-02-07T17:03:11.591Z,74.10
2019-02-07T17:05:38.633Z,73.36
2019-02-07T17:08:05.738Z,75.45
2019-02-07T17:10:33.321Z,74.76
2019-02-07T17:13:00.323Z,75.67
2019-02-07T17:15:27.379Z,73.62
2019-02-07T17:17:54.676Z,75.16
2019-02-07T17:20:25.116Z,75.17
2019-02-07T17:22:52.069Z,73.75
2019-02-07T17:25:22.642Z,74.95
2019-02-07T17:27:49.933Z,77.64
2019-02-07T17:30:17.512Z,74.28
2019-02-07T17:32:44.969Z,73.49
2019-02-07T17:35:12.600Z,75.91
2019-02-07T17:37:39.562Z,74.22
2019-02-07T17:40:10.520Z,73.66
2019-02-07T17:42:37.531Z,74.26
2019-02-07T17:45:05.973Z,75.42
2019-02-07T17:47:32.965Z,74.50
2019-02-07T17:50:00.048Z,75.10
2019-02-07T17:52:27.664Z,74.71
2019-02-07T17:54:54.618Z,75.22
2019-02-07T17:57:21.586Z,75.04
2019-02-07T17:59:48.549Z,75.46
2019-02-07T18:02:15.498Z,75.71
2019-02-07T18:04:44.189Z,76.16
2019-02-07T18:07:11.315Z,77.00
2019-02-07T18:09:38.496Z,77.36
2019-02-07T18:12:05.427Z,78.39
2019-02-07T18:14:32.367Z,79.10
2019-02-07T18:16:59.275Z,79.47
2019-02-07T18:19:26.245Z,80.20
2019-02-07T18:21:53.228Z,81.06
2019-02-07T18:24:20.481Z,81.44
2019-02-07T18:26:47.569Z,81.94
2019-02-07T18:29:14.825Z,81.77
2019-02-07T18:31:41.787Z,82.04
2019-02-07T18:34:08.775Z,82.82
2019-02-07T18:36:35.691Z,83.62
2019-02-07T18:39:04.849Z,83.24
2019-02-07T18:41:31.818Z,83.28
2019-02-07T18:43:58.792Z,83.72
2019-02-07T18:46:26.149Z,84.04
2019-02-07T18:48:53.137Z,83.41
2019-02-07T18:51:20.185Z,83.79
2019-02-07T18:53:47.129Z,83.89
2019-02-07T18:56:14.106Z,83.73
2019-02-07T18:58:41.043Z,83.53
2019-02-07T19:01:07.995Z,83.42
2019-02-07T19:03:34.987Z,83.13
2019-02-07T19:06:02.270Z,83.36
2019-02-07T19:08:29.458Z,82.86
2019-02-07T19:10:56.473Z,82.86
2019-02-07T19:13:23.498Z,82.73
2019-02-07T19:15:54.008Z,82.91
2019-02-07T19:18:20.918Z,82.88
2019-02-07T19:20:47.918Z,82.46
2019-02-07T19:23:14.857Z,82.58
2019-02-07T19:25:41.915Z,82.62
2019-02-07T19:28:08.918Z,83.23
2019-02-07T19:30:35.970Z,83.21
2019-02-07T19:33:03.403Z,82.94
2019-02-07T19:35:30.471Z,83.48
2019-02-07T19:37:57.698Z,83.16
2019-02-07T19:40:25.075Z,83.31
2019-02-07T19:42:52.519Z,83.90
2019-02-07T19:45:19.946Z,83.38
2019-02-07T19:47:46.874Z,83.23
2019-02-07T19:50:16.450Z,83.51
2019-02-07T19:52:43.589Z,83.28
2019-02-07T19:55:13.183Z,83.43
2019-02-07T19:57:40.243Z,83.91
2019-02-07T20:00:10.809Z,83.60
2019-02-07T20:02:37.766Z,83.66
2019-02-07T20:05:06.117Z,83.30
2019-02-07T20:07:33.062Z,83.68
2019-02-07T20:10:00.181Z,83.68
2019-02-07T20:12:27.224Z,83.38
2019-02-07T20:14:54.306Z,83.33
2019-02-07T20:17:21.257Z,83.97
2019-02-07T20:19:48.587Z,83.84
2019-02-07T20:22:20.352Z,83.73
2019-02-07T20:24:46.316Z,83.95
2019-02-07T20:27:13.321Z,83.96
2019-02-07T20:29:40.295Z,83.43
2019-02-07T20:32:07.260Z,84.10
2019-02-07T20:34:34.226Z,83.99
2019-02-07T20:37:01.664Z,84.46
2019-02-07T20:39:29.475Z,84.44
2019-02-07T20:41:56.578Z,84.11
2019-02-07T20:44:23.531Z,84.59
2019-02-07T20:46:50.543Z,84.25
2019-02-07T20:49:17.482Z,83.83
2019-02-07T20:51:44.510Z,84.16
2019-02-07T20:54:11.529Z,84.08
2019-02-07T20:56:38.497Z,83.69
2019-02-07T20:59:05.513Z,83.92
2019-02-07T21:01:32.762Z,84.42
2019-02-07T21:03:59.682Z,84.18
2019-02-07T21:06:26.691Z,83.92
2019-02-07T21:08:53.604Z,84.18
2019-02-07T21:11:20.720Z,83.72
2019-02-07T21:13:47.834Z,83.87
2019-02-07T21:16:14.765Z,84.39
2019-02-07T21:18:41.722Z,84.09
2019-02-07T21:21:09.749Z,85.04
2019-02-07T21:23:36.694Z,85.33
2019-02-07T21:26:03.742Z,85.36
2019-02-07T21:28:30.803Z,85.68
2019-02-07T21:30:57.862Z,86.22
2019-02-07T21:33:24.808Z,86.50
2019-02-07T21:35:51.760Z,86.70
2019-02-07T21:38:18.747Z,86.28
2019-02-07T21:40:45.705Z,86.30
2019-02-07T21:43:12.890Z,86.45
2019-02-07T21:45:39.797Z,86.94
2019-02-07T21:48:11.832Z,87.76
2019-02-07T21:50:38.949Z,88.06
2019-02-07T21:53:05.996Z,87.87
2019-02-07T21:55:32.945Z,88.20
2019-02-07T21:58:02.698Z,88.38
2019-02-07T22:00:35.233Z,88.48
2019-02-07T22:03:05.456Z,88.35
2019-02-07T22:05:32.526Z,88.09
2019-02-07T22:08:02.153Z,88.77
2019-02-07T22:10:29.105Z,89.15
2019-02-07T22:12:56.498Z,89.02
2019-02-07T22:15:24.018Z,88.75
2019-02-07T22:17:50.911Z,89.15
2019-02-07T22:20:19.642Z,88.89
2019-02-07T22:22:49.213Z,89.05
2019-02-07T22:25:17.004Z,88.95
2019-02-07T22:27:44.056Z,89.20
2019-02-07T22:30:20.966Z,88.99
2019-02-07T22:32:48.272Z,88.99
2019-02-07T22:35:15.355Z,88.91
2019-02-07T22:37:42.298Z,88.86
2019-02-07T22:40:12.559Z,89.15
2019-02-07T22:42:39.470Z,89.21
2019-02-07T22:45:07.873Z,89.34
2019-02-07T22:47:34.853Z,89.09
2019-02-07T22:50:02.512Z,89.39
2019-02-07T22:52:29.573Z,89.27
2019-02-07T22:54:56.543Z,89.51
2019-02-07T22:57:23.480Z,89.75
2019-02-07T22:59:50.546Z,89.76
2019-02-07T23:02:17.529Z,89.38
2019-02-07T23:04:44.487Z,89.02
2019-02-07T23:07:11.445Z,89.67
2019-02-07T23:09:38.392Z,89.47
2019-02-07T23:12:05.721Z,89.38
2019-02-07T23:14:32.668Z,89.58
2019-02-07T23:16:59.586Z,89.92
2019-02-07T23:19:26.579Z,90.11
2019-02-07T23:21:53.525Z,90.19
2019-02-07T23:24:20.508Z,90.17
2019-02-07T23:26:48.576Z,90.30
2019-02-07T23:29:15.554Z,90.68
2019-02-07T23:31:42.879Z,90.66
2019-02-07T23:34:09.844Z,90.95
2019-02-07T23:36:37.426Z,90.87
2019-02-07T23:39:07.565Z,91.09
2019-02-07T23:41:34.559Z,90.94
2019-02-07T23:44:01.837Z,91.15
2019-02-07T23:46:28.843Z,90.91
2019-02-07T23:48:55.772Z,90.86
2019-02-07T23:51:25.995Z,90.69
2019-02-07T23:53:53.005Z,90.99
2019-02-07T23:56:20.081Z,91.49
2019-02-07T23:58:47.033Z,91.47
